Briefing drone pour Vic-sur-cere

Rechercher une autre localisation

Conditions de vol :


Nous sommes le : Lundi 04 juillet 2022
Il est 05:22 UTC (07:22 LT)

Lever de soleil : 03:42 UTC (05:42 LT)
Coucher de soleil : 20:05 UTC (22:05 LT)

Météo

L'essentiel des conditions de vol

VIGILANCE MÉTÉO FRANCE - Cantal (15)
Vigilance Jaune : Orages
CARTE TEMSI
CARTES DES FRONTS
METAR de LFLW
LFLW 040500Z AUTO VRB02KT CAVOK 15/15 Q1021

Date d'émission: 04/07/2022
Heure d'émission: 05:00 UTC
Vent: Variable 2 KT (4 km/h)
Visibilité horizontale: > 10 km
Plafond : Plafond et visibilité OK (CAVOK)
Température: 15 °C
Point de rosée: 15 °C
Humidité: 100%
Pression (QNH): 1021 hPa
Prévision 24h pour Aurillac (9 km)
Vent : 64° pour 1 KT (5 km/h)
Temperature Maxi: 15 °C
Temperature Min: 15 °C
Humidité : 95%
Condition : Ciel dégagé



Warning: count(): Parameter must be an array or an object that implements Countable in /homepages/6/d509196549/htdocs/droneoxygene/briefing.php on line 743
WEBCAM POUR VIC-SUR-CERE

Réglementation

Voler en sécurité

CARTES AERONAUTIQUE 1/500.000
CARTES VAC (LFLW)
SUP AIP




Chargement des AIP...
NOTAM (VIC-SUR-CERE + Terrain à proximité / FIR )




Chargement des NOTAMS...
CONTACT PREFECTURE 15


Avertissement : Les données mises à disposition sont indicatives. Oxygène Drone ne pourra être tenu responsable de dégâts causés aux biens et aux personnes.